sensor_id;sensor_type;location;lat;lon;timestamp;temperature;humidity
7646;DHT22;3864;48.180;14.178;2022-10-16T00:01:32;11.70;99.90
7646;DHT22;3864;48.180;14.178;2022-10-16T00:04:01;11.70;99.90
7646;DHT22;3864;48.180;14.178;2022-10-16T00:06:29;11.70;99.90
7646;DHT22;3864;48.180;14.178;2022-10-16T00:08:57;11.70;99.90
7646;DHT22;3864;48.180;14.178;2022-10-16T00:11:28;11.70;99.90
7646;DHT22;3864;48.180;14.178;2022-10-16T00:13:58;11.70;99.90
7646;DHT22;3864;48.180;14.178;2022-10-16T00:16:27;11.80;99.90
7646;DHT22;3864;48.180;14.178;2022-10-16T00:18:54;11.80;99.90
7646;DHT22;3864;48.180;14.178;2022-10-16T00:21:25;11.80;99.90
7646;DHT22;3864;48.180;14.178;2022-10-16T00:23:53;11.80;99.90
7646;DHT22;3864;48.180;14.178;2022-10-16T00:26:21;11.80;99.90
7646;DHT22;3864;48.180;14.178;2022-10-16T00:28:51;11.80;99.90
7646;DHT22;3864;48.180;14.178;2022-10-16T00:31:21;11.70;99.90
7646;DHT22;3864;48.180;14.178;2022-10-16T00:33:49;11.70;99.90
7646;DHT22;3864;48.180;14.178;2022-10-16T00:36:17;11.60;99.90
7646;DHT22;3864;48.180;14.178;2022-10-16T00:38:45;11.60;99.90
7646;DHT22;3864;48.180;14.178;2022-10-16T00:41:15;11.50;99.90
7646;DHT22;3864;48.180;14.178;2022-10-16T00:43:44;11.50;99.90
7646;DHT22;3864;48.180;14.178;2022-10-16T00:46:18;11.50;99.90
7646;DHT22;3864;48.180;14.178;2022-10-16T00:48:50;11.50;99.90
7646;DHT22;3864;48.180;14.178;2022-10-16T00:51:21;11.40;99.90
7646;DHT22;3864;48.180;14.178;2022-10-16T00:53:50;11.40;99.90
7646;DHT22;3864;48.180;14.178;2022-10-16T00:56:18;11.40;99.90
7646;DHT22;3864;48.180;14.178;2022-10-16T00:58:45;11.40;99.90
7646;DHT22;3864;48.180;14.178;2022-10-16T01:01:15;11.30;99.90
7646;DHT22;3864;48.180;14.178;2022-10-16T01:03:42;11.30;99.90
7646;DHT22;3864;48.180;14.178;2022-10-16T01:06:21;11.20;99.90
7646;DHT22;3864;48.180;14.178;2022-10-16T01:09:03;11.20;99.90
7646;DHT22;3864;48.180;14.178;2022-10-16T01:11:35;11.20;99.90
7646;DHT22;3864;48.180;14.178;2022-10-16T01:14:13;11.20;99.90
7646;DHT22;3864;48.180;14.178;2022-10-16T01:16:47;11.20;99.90
7646;DHT22;3864;48.180;14.178;2022-10-16T01:19:20;11.10;99.90
7646;DHT22;3864;48.180;14.178;2022-10-16T01:21:53;11.00;99.90
7646;DHT22;3864;48.180;14.178;2022-10-16T01:24:30;11.00;99.90
7646;DHT22;3864;48.180;14.178;2022-10-16T01:27:14;10.90;99.90
7646;DHT22;3864;48.180;14.178;2022-10-16T01:29:51;10.90;99.90
7646;DHT22;3864;48.180;14.178;2022-10-16T01:32:26;10.90;99.90
7646;DHT22;3864;48.180;14.178;2022-10-16T01:34:59;10.90;99.90
7646;DHT22;3864;48.180;14.178;2022-10-16T01:37:33;11.00;99.90
7646;DHT22;3864;48.180;14.178;2022-10-16T01:40:06;11.00;99.90
7646;DHT22;3864;48.180;14.178;2022-10-16T01:42:38;11.10;99.90
7646;DHT22;3864;48.180;14.178;2022-10-16T01:45:08;11.10;99.90
7646;DHT22;3864;48.180;14.178;2022-10-16T01:47:39;11.10;99.90
7646;DHT22;3864;48.180;14.178;2022-10-16T01:50:08;11.10;99.90
7646;DHT22;3864;48.180;14.178;2022-10-16T01:52:39;11.10;99.90
7646;DHT22;3864;48.180;14.178;2022-10-16T01:55:08;11.00;99.90
7646;DHT22;3864;48.180;14.178;2022-10-16T01:57:42;10.90;99.90
7646;DHT22;3864;48.180;14.178;2022-10-16T02:00:12;10.80;99.90
7646;DHT22;3864;48.180;14.178;2022-10-16T02:02:43;10.70;99.90
7646;DHT22;3864;48.180;14.178;2022-10-16T02:05:16;10.70;99.90
7646;DHT22;3864;48.180;14.178;2022-10-16T02:07:46;10.60;99.90
7646;DHT22;3864;48.180;14.178;2022-10-16T02:10:14;10.50;99.90
7646;DHT22;3864;48.180;14.178;2022-10-16T02:12:47;10.40;99.90
7646;DHT22;3864;48.180;14.178;2022-10-16T02:15:15;10.30;99.90
7646;DHT22;3864;48.180;14.178;2022-10-16T02:17:42;10.30;99.90
7646;DHT22;3864;48.180;14.178;2022-10-16T02:20:10;10.40;99.90
7646;DHT22;3864;48.180;14.178;2022-10-16T02:22:40;10.40;99.90
7646;DHT22;3864;48.180;14.178;2022-10-16T02:25:10;10.40;99.90
7646;DHT22;3864;48.180;14.178;2022-10-16T02:27:43;10.30;99.90
7646;DHT22;3864;48.180;14.178;2022-10-16T02:30:20;10.30;99.90
7646;DHT22;3864;48.180;14.178;2022-10-16T02:32:49;10.30;99.90
7646;DHT22;3864;48.180;14.178;2022-10-16T02:35:20;10.30;99.90
7646;DHT22;3864;48.180;14.178;2022-10-16T02:37:48;10.30;99.90
7646;DHT22;3864;48.180;14.178;2022-10-16T02:40:18;10.30;99.90
7646;DHT22;3864;48.180;14.178;2022-10-16T02:42:50;10.30;99.90
7646;DHT22;3864;48.180;14.178;2022-10-16T02:45:18;10.30;99.90
7646;DHT22;3864;48.180;14.178;2022-10-16T02:47:45;10.20;99.90
7646;DHT22;3864;48.180;14.178;2022-10-16T02:50:13;10.30;99.90
7646;DHT22;3864;48.180;14.178;2022-10-16T02:52:40;10.20;99.90
7646;DHT22;3864;48.180;14.178;2022-10-16T02:55:08;10.20;99.90
7646;DHT22;3864;48.180;14.178;2022-10-16T02:57:35;10.10;99.90
7646;DHT22;3864;48.180;14.178;2022-10-16T03:00:09;10.00;99.90
7646;DHT22;3864;48.180;14.178;2022-10-16T03:02:36;10.00;99.90
7646;DHT22;3864;48.180;14.178;2022-10-16T03:05:04;10.00;99.90
7646;DHT22;3864;48.180;14.178;2022-10-16T03:07:32;10.00;99.90
7646;DHT22;3864;48.180;14.178;2022-10-16T03:09:59;10.00;99.90
7646;DHT22;3864;48.180;14.178;2022-10-16T03:12:27;10.10;99.90
7646;DHT22;3864;48.180;14.178;2022-10-16T03:14:55;10.20;99.90
7646;DHT22;3864;48.180;14.178;2022-10-16T03:17:24;10.30;99.90
7646;DHT22;3864;48.180;14.178;2022-10-16T03:19:52;10.40;99.90
7646;DHT22;3864;48.180;14.178;2022-10-16T03:22:19;10.40;99.90
7646;DHT22;3864;48.180;14.178;2022-10-16T03:24:47;10.40;99.90
7646;DHT22;3864;48.180;14.178;2022-10-16T03:27:14;10.50;99.90
7646;DHT22;3864;48.180;14.178;2022-10-16T03:29:42;10.50;99.90
7646;DHT22;3864;48.180;14.178;2022-10-16T03:32:09;10.50;99.90
7646;DHT22;3864;48.180;14.178;2022-10-16T03:34:38;10.50;99.90
7646;DHT22;3864;48.180;14.178;2022-10-16T03:37:05;10.50;99.90
7646;DHT22;3864;48.180;14.178;2022-10-16T03:39:32;10.50;99.90
7646;DHT22;3864;48.180;14.178;2022-10-16T03:42:00;10.50;99.90
7646;DHT22;3864;48.180;14.178;2022-10-16T03:44:27;10.50;99.90
7646;DHT22;3864;48.180;14.178;2022-10-16T03:46:54;10.50;99.90
7646;DHT22;3864;48.180;14.178;2022-10-16T03:49:21;10.50;99.90
7646;DHT22;3864;48.180;14.178;2022-10-16T03:51:50;10.50;99.90
7646;DHT22;3864;48.180;14.178;2022-10-16T03:54:17;10.50;99.90
7646;DHT22;3864;48.180;14.178;2022-10-16T03:56:44;10.40;99.90
7646;DHT22;3864;48.180;14.178;2022-10-16T03:59:12;10.40;99.90
7646;DHT22;3864;48.180;14.178;2022-10-16T04:01:39;10.30;99.90
7646;DHT22;3864;48.180;14.178;2022-10-16T04:04:07;10.30;99.90
7646;DHT22;3864;48.180;14.178;2022-10-16T04:06:34;10.20;99.90
7646;DHT22;3864;48.180;14.178;2022-10-16T04:09:03;10.10;99.90
7646;DHT22;3864;48.180;14.178;2022-10-16T04:11:30;10.00;99.90
7646;DHT22;3864;48.180;14.178;2022-10-16T04:13:58;10.10;99.90
7646;DHT22;3864;48.180;14.178;2022-10-16T04:16:25;10.10;99.90
7646;DHT22;3864;48.180;14.178;2022-10-16T04:18:52;10.10;99.90
7646;DHT22;3864;48.180;14.178;2022-10-16T04:21:19;10.20;99.90
7646;DHT22;3864;48.180;14.178;2022-10-16T04:23:46;10.10;99.90
7646;DHT22;3864;48.180;14.178;2022-10-16T04:26:16;10.10;99.90
7646;DHT22;3864;48.180;14.178;2022-10-16T04:28:43;10.00;99.90
7646;DHT22;3864;48.180;14.178;2022-10-16T04:31:10;10.00;99.90
7646;DHT22;3864;48.180;14.178;2022-10-16T04:33:38;10.10;99.90
7646;DHT22;3864;48.180;14.178;2022-10-16T04:36:05;10.10;99.90
7646;DHT22;3864;48.180;14.178;2022-10-16T04:38:33;10.10;99.90
7646;DHT22;3864;48.180;14.178;2022-10-16T04:41:00;10.10;99.90
7646;DHT22;3864;48.180;14.178;2022-10-16T04:43:29;10.10;99.90
7646;DHT22;3864;48.180;14.178;2022-10-16T04:45:57;10.20;99.90
7646;DHT22;3864;48.180;14.178;2022-10-16T04:48:24;10.20;99.90
7646;DHT22;3864;48.180;14.178;2022-10-16T04:50:51;10.20;99.90
7646;DHT22;3864;48.180;14.178;2022-10-16T04:53:19;10.10;99.90
7646;DHT22;3864;48.180;14.178;2022-10-16T04:55:46;10.00;99.90
7646;DHT22;3864;48.180;14.178;2022-10-16T04:58:13;9.90;99.90
7646;DHT22;3864;48.180;14.178;2022-10-16T05:00:43;9.70;99.90
7646;DHT22;3864;48.180;14.178;2022-10-16T05:03:11;9.60;99.90
7646;DHT22;3864;48.180;14.178;2022-10-16T05:05:42;9.60;99.90
7646;DHT22;3864;48.180;14.178;2022-10-16T05:08:10;9.70;99.90
7646;DHT22;3864;48.180;14.178;2022-10-16T05:10:37;9.60;99.90
7646;DHT22;3864;48.180;14.178;2022-10-16T05:13:05;9.60;99.90
7646;DHT22;3864;48.180;14.178;2022-10-16T05:15:32;9.50;99.90
7646;DHT22;3864;48.180;14.178;2022-10-16T05:18:01;9.40;99.90
7646;DHT22;3864;48.180;14.178;2022-10-16T05:20:29;9.30;99.90
7646;DHT22;3864;48.180;14.178;2022-10-16T05:22:56;9.30;99.90
7646;DHT22;3864;48.180;14.178;2022-10-16T05:25:24;9.20;99.90
7646;DHT22;3864;48.180;14.178;2022-10-16T05:27:51;9.30;99.90
7646;DHT22;3864;48.180;14.178;2022-10-16T05:30:19;9.30;99.90
7646;DHT22;3864;48.180;14.178;2022-10-16T05:32:47;9.40;99.90
7646;DHT22;3864;48.180;14.178;2022-10-16T05:35:17;9.50;99.90
7646;DHT22;3864;48.180;14.178;2022-10-16T05:37:44;9.50;99.90
7646;DHT22;3864;48.180;14.178;2022-10-16T05:40:12;9.50;99.90
7646;DHT22;3864;48.180;14.178;2022-10-16T05:42:40;9.50;99.90
7646;DHT22;3864;48.180;14.178;2022-10-16T05:45:09;9.50;99.90
7646;DHT22;3864;48.180;14.178;2022-10-16T05:47:37;9.70;99.90
7646;DHT22;3864;48.180;14.178;2022-10-16T05:50:05;9.80;99.90
7646;DHT22;3864;48.180;14.178;2022-10-16T05:52:34;10.00;99.90
7646;DHT22;3864;48.180;14.178;2022-10-16T05:55:01;10.00;99.90
7646;DHT22;3864;48.180;14.178;2022-10-16T05:57:29;10.10;99.90
7646;DHT22;3864;48.180;14.178;2022-10-16T05:59:56;10.10;99.90
7646;DHT22;3864;48.180;14.178;2022-10-16T06:02:24;10.20;99.90
7646;DHT22;3864;48.180;14.178;2022-10-16T06:04:52;10.30;99.90
7646;DHT22;3864;48.180;14.178;2022-10-16T06:07:20;10.50;99.90
7646;DHT22;3864;48.180;14.178;2022-10-16T06:09:50;10.50;99.90
7646;DHT22;3864;48.180;14.178;2022-10-16T06:12:18;10.60;99.90
7646;DHT22;3864;48.180;14.178;2022-10-16T06:14:46;10.60;99.90
7646;DHT22;3864;48.180;14.178;2022-10-16T06:17:14;10.70;99.90
7646;DHT22;3864;48.180;14.178;2022-10-16T06:19:41;10.80;99.90
7646;DHT22;3864;48.180;14.178;2022-10-16T06:22:09;10.80;99.90
7646;DHT22;3864;48.180;14.178;2022-10-16T06:24:36;10.90;99.90
7646;DHT22;3864;48.180;14.178;2022-10-16T06:27:05;11.00;99.90
7646;DHT22;3864;48.180;14.178;2022-10-16T06:29:33;11.00;99.90
7646;DHT22;3864;48.180;14.178;2022-10-16T06:32:00;11.20;99.90
7646;DHT22;3864;48.180;14.178;2022-10-16T06:34:29;11.40;99.90
7646;DHT22;3864;48.180;14.178;2022-10-16T06:36:56;11.50;99.90
7646;DHT22;3864;48.180;14.178;2022-10-16T06:39:24;11.50;99.90
7646;DHT22;3864;48.180;14.178;2022-10-16T06:41:54;11.60;99.90
7646;DHT22;3864;48.180;14.178;2022-10-16T06:44:22;11.60;99.90
7646;DHT22;3864;48.180;14.178;2022-10-16T06:46:50;11.80;99.90
7646;DHT22;3864;48.180;14.178;2022-10-16T06:49:17;11.80;99.90
7646;DHT22;3864;48.180;14.178;2022-10-16T06:51:47;11.90;99.90
7646;DHT22;3864;48.180;14.178;2022-10-16T06:54:15;11.90;99.90
7646;DHT22;3864;48.180;14.178;2022-10-16T06:56:43;12.00;99.90
7646;DHT22;3864;48.180;14.178;2022-10-16T06:59:10;12.00;99.90
7646;DHT22;3864;48.180;14.178;2022-10-16T07:01:39;11.80;99.90
7646;DHT22;3864;48.180;14.178;2022-10-16T07:04:07;11.80;99.90
7646;DHT22;3864;48.180;14.178;2022-10-16T07:06:34;11.80;99.90
7646;DHT22;3864;48.180;14.178;2022-10-16T07:09:03;11.90;99.90
7646;DHT22;3864;48.180;14.178;2022-10-16T07:11:31;11.90;99.90
7646;DHT22;3864;48.180;14.178;2022-10-16T07:13:59;11.90;99.90
7646;DHT22;3864;48.180;14.178;2022-10-16T07:16:28;11.90;99.90
7646;DHT22;3864;48.180;14.178;2022-10-16T07:18:59;12.00;99.90
7646;DHT22;3864;48.180;14.178;2022-10-16T07:21:29;12.20;99.90
7646;DHT22;3864;48.180;14.178;2022-10-16T07:23:58;12.40;99.90
7646;DHT22;3864;48.180;14.178;2022-10-16T07:26:28;12.60;99.90
7646;DHT22;3864;48.180;14.178;2022-10-16T07:28:56;12.70;99.90
7646;DHT22;3864;48.180;14.178;2022-10-16T07:31:24;12.80;99.90
7646;DHT22;3864;48.180;14.178;2022-10-16T07:33:52;13.00;99.90
7646;DHT22;3864;48.180;14.178;2022-10-16T07:36:21;13.20;99.90
7646;DHT22;3864;48.180;14.178;2022-10-16T07:38:48;13.50;99.90
7646;DHT22;3864;48.180;14.178;2022-10-16T07:41:17;13.50;99.90
7646;DHT22;3864;48.180;14.178;2022-10-16T07:43:48;13.50;99.90
7646;DHT22;3864;48.180;14.178;2022-10-16T07:46:16;13.70;99.90
7646;DHT22;3864;48.180;14.178;2022-10-16T07:48:44;13.80;99.90
7646;DHT22;3864;48.180;14.178;2022-10-16T07:51:13;14.00;99.90
7646;DHT22;3864;48.180;14.178;2022-10-16T07:53:42;14.20;99.90
7646;DHT22;3864;48.180;14.178;2022-10-16T07:56:10;14.40;99.90
7646;DHT22;3864;48.180;14.178;2022-10-16T07:58:37;14.30;99.90
7646;DHT22;3864;48.180;14.178;2022-10-16T08:01:06;14.20;99.90
7646;DHT22;3864;48.180;14.178;2022-10-16T08:03:34;14.30;99.90
7646;DHT22;3864;48.180;14.178;2022-10-16T08:06:02;14.40;99.90
7646;DHT22;3864;48.180;14.178;2022-10-16T08:08:29;14.10;99.90
7646;DHT22;3864;48.180;14.178;2022-10-16T08:10:59;14.00;99.90
7646;DHT22;3864;48.180;14.178;2022-10-16T08:13:29;14.20;99.90
7646;DHT22;3864;48.180;14.178;2022-10-16T08:15:56;14.40;99.90
7646;DHT22;3864;48.180;14.178;2022-10-16T08:18:23;14.70;99.90
7646;DHT22;3864;48.180;14.178;2022-10-16T08:20:56;14.80;99.90
7646;DHT22;3864;48.180;14.178;2022-10-16T08:23:24;14.90;99.90
7646;DHT22;3864;48.180;14.178;2022-10-16T08:25:53;15.10;99.90
7646;DHT22;3864;48.180;14.178;2022-10-16T08:28:23;15.40;99.90
7646;DHT22;3864;48.180;14.178;2022-10-16T08:30:50;15.30;99.90
7646;DHT22;3864;48.180;14.178;2022-10-16T08:33:18;15.40;99.90
7646;DHT22;3864;48.180;14.178;2022-10-16T08:35:51;15.40;99.90
7646;DHT22;3864;48.180;14.178;2022-10-16T08:38:19;16.00;99.90
7646;DHT22;3864;48.180;14.178;2022-10-16T08:40:46;16.40;99.90
7646;DHT22;3864;48.180;14.178;2022-10-16T08:46:21;16.70;99.90
7646;DHT22;3864;48.180;14.178;2022-10-16T08:48:53;16.70;99.90
7646;DHT22;3864;48.180;14.178;2022-10-16T08:51:23;16.80;99.90
7646;DHT22;3864;48.180;14.178;2022-10-16T08:53:53;16.80;99.90
7646;DHT22;3864;48.180;14.178;2022-10-16T08:56:22;17.00;99.90
7646;DHT22;3864;48.180;14.178;2022-10-16T08:58:50;17.30;99.90
7646;DHT22;3864;48.180;14.178;2022-10-16T09:01:21;17.80;99.90
7646;DHT22;3864;48.180;14.178;2022-10-16T09:04:04;18.00;99.90
7646;DHT22;3864;48.180;14.178;2022-10-16T09:06:44;18.00;99.90
7646;DHT22;3864;48.180;14.178;2022-10-16T09:12:14;17.50;99.90
7646;DHT22;3864;48.180;14.178;2022-10-16T09:15:07;17.20;99.90
7646;DHT22;3864;48.180;14.178;2022-10-16T09:17:49;16.80;99.90
7646;DHT22;3864;48.180;14.178;2022-10-16T09:20:32;16.70;99.90
7646;DHT22;3864;48.180;14.178;2022-10-16T09:23:12;17.00;99.90
7646;DHT22;3864;48.180;14.178;2022-10-16T09:25:43;17.60;99.90
7646;DHT22;3864;48.180;14.178;2022-10-16T09:28:11;17.90;99.90
7646;DHT22;3864;48.180;14.178;2022-10-16T09:30:39;17.90;99.90
7646;DHT22;3864;48.180;14.178;2022-10-16T09:33:10;18.00;99.90
7646;DHT22;3864;48.180;14.178;2022-10-16T09:35:40;18.00;99.90
7646;DHT22;3864;48.180;14.178;2022-10-16T09:38:08;17.80;99.90
7646;DHT22;3864;48.180;14.178;2022-10-16T09:40:37;17.50;99.90
7646;DHT22;3864;48.180;14.178;2022-10-16T09:43:18;17.20;99.90
7646;DHT22;3864;48.180;14.178;2022-10-16T09:45:54;17.00;99.90
7646;DHT22;3864;48.180;14.178;2022-10-16T09:48:25;17.00;99.90
7646;DHT22;3864;48.180;14.178;2022-10-16T09:50:57;17.10;99.90
7646;DHT22;3864;48.180;14.178;2022-10-16T09:53:37;17.20;99.90
7646;DHT22;3864;48.180;14.178;2022-10-16T09:56:05;17.20;99.90
7646;DHT22;3864;48.180;14.178;2022-10-16T09:58:33;17.30;99.90
7646;DHT22;3864;48.180;14.178;2022-10-16T10:01:00;17.30;99.90
7646;DHT22;3864;48.180;14.178;2022-10-16T10:03:37;17.30;99.90
7646;DHT22;3864;48.180;14.178;2022-10-16T10:06:15;17.30;99.90
7646;DHT22;3864;48.180;14.178;2022-10-16T10:09:06;17.20;99.90
7646;DHT22;3864;48.180;14.178;2022-10-16T10:11:42;17.00;99.90
7646;DHT22;3864;48.180;14.178;2022-10-16T10:14:23;17.00;99.90
7646;DHT22;3864;48.180;14.178;2022-10-16T10:16:53;16.90;99.90
7646;DHT22;3864;48.180;14.178;2022-10-16T10:19:36;16.80;99.90
7646;DHT22;3864;48.180;14.178;2022-10-16T10:22:15;16.70;99.90
7646;DHT22;3864;48.180;14.178;2022-10-16T10:24:45;16.70;99.90
7646;DHT22;3864;48.180;14.178;2022-10-16T10:27:16;16.60;99.90
7646;DHT22;3864;48.180;14.178;2022-10-16T10:29:48;16.50;99.90
7646;DHT22;3864;48.180;14.178;2022-10-16T10:32:27;16.40;99.90
7646;DHT22;3864;48.180;14.178;2022-10-16T10:35:12;16.30;99.90
7646;DHT22;3864;48.180;14.178;2022-10-16T10:37:59;16.20;99.90
7646;DHT22;3864;48.180;14.178;2022-10-16T10:40:37;16.20;99.90
7646;DHT22;3864;48.180;14.178;2022-10-16T10:43:13;16.10;99.90
7646;DHT22;3864;48.180;14.178;2022-10-16T10:45:46;16.00;99.90
7646;DHT22;3864;48.180;14.178;2022-10-16T10:48:22;16.00;99.90
7646;DHT22;3864;48.180;14.178;2022-10-16T10:50:57;16.20;99.90
7646;DHT22;3864;48.180;14.178;2022-10-16T10:53:36;16.30;99.90
7646;DHT22;3864;48.180;14.178;2022-10-16T10:56:17;16.40;99.90
7646;DHT22;3864;48.180;14.178;2022-10-16T10:59:07;16.40;99.90
7646;DHT22;3864;48.180;14.178;2022-10-16T11:01:44;16.70;99.90
7646;DHT22;3864;48.180;14.178;2022-10-16T11:07:15;17.40;99.90
7646;DHT22;3864;48.180;14.178;2022-10-16T11:09:47;18.20;99.90
7646;DHT22;3864;48.180;14.178;2022-10-16T11:12:18;18.50;99.90
7646;DHT22;3864;48.180;14.178;2022-10-16T11:14:49;18.30;99.90
7646;DHT22;3864;48.180;14.178;2022-10-16T11:17:21;18.00;99.90
7646;DHT22;3864;48.180;14.178;2022-10-16T11:19:55;17.90;99.90
7646;DHT22;3864;48.180;14.178;2022-10-16T11:22:29;18.00;99.90
7646;DHT22;3864;48.180;14.178;2022-10-16T11:25:04;18.60;99.90
7646;DHT22;3864;48.180;14.178;2022-10-16T11:27:39;19.10;99.90
7646;DHT22;3864;48.180;14.178;2022-10-16T11:30:16;19.00;99.90
7646;DHT22;3864;48.180;14.178;2022-10-16T11:32:53;18.80;99.90
7646;DHT22;3864;48.180;14.178;2022-10-16T11:35:25;18.80;99.90
7646;DHT22;3864;48.180;14.178;2022-10-16T11:37:59;19.00;99.90
7646;DHT22;3864;48.180;14.178;2022-10-16T11:40:30;19.10;99.90
7646;DHT22;3864;48.180;14.178;2022-10-16T11:43:06;19.20;99.90
7646;DHT22;3864;48.180;14.178;2022-10-16T11:45:41;19.20;99.90
7646;DHT22;3864;48.180;14.178;2022-10-16T11:48:18;19.10;99.90
7646;DHT22;3864;48.180;14.178;2022-10-16T11:50:51;19.10;99.90
7646;DHT22;3864;48.180;14.178;2022-10-16T11:53:29;19.00;99.90
7646;DHT22;3864;48.180;14.178;2022-10-16T11:55:58;19.30;99.90
7646;DHT22;3864;48.180;14.178;2022-10-16T11:58:29;19.80;99.90
7646;DHT22;3864;48.180;14.178;2022-10-16T12:01:03;20.90;99.90
7646;DHT22;3864;48.180;14.178;2022-10-16T12:03:39;21.70;99.90
7646;DHT22;3864;48.180;14.178;2022-10-16T12:06:29;21.60;99.90
7646;DHT22;3864;48.180;14.178;2022-10-16T12:09:01;20.70;99.90
7646;DHT22;3864;48.180;14.178;2022-10-16T12:11:35;19.90;99.90
7646;DHT22;3864;48.180;14.178;2022-10-16T12:14:36;19.10;99.90
7646;DHT22;3864;48.180;14.178;2022-10-16T12:17:23;18.50;99.90
7646;DHT22;3864;48.180;14.178;2022-10-16T12:19:59;18.10;99.90
7646;DHT22;3864;48.180;14.178;2022-10-16T12:22:29;17.70;99.90
7646;DHT22;3864;48.180;14.178;2022-10-16T12:24:58;17.50;99.90
7646;DHT22;3864;48.180;14.178;2022-10-16T12:27:29;17.40;99.90
7646;DHT22;3864;48.180;14.178;2022-10-16T12:29:57;17.30;99.90
7646;DHT22;3864;48.180;14.178;2022-10-16T12:32:30;17.30;99.90
7646;DHT22;3864;48.180;14.178;2022-10-16T12:34:59;17.30;99.90
7646;DHT22;3864;48.180;14.178;2022-10-16T12:37:29;17.30;99.90
7646;DHT22;3864;48.180;14.178;2022-10-16T12:40:10;17.30;99.90
7646;DHT22;3864;48.180;14.178;2022-10-16T12:42:39;17.30;99.90
7646;DHT22;3864;48.180;14.178;2022-10-16T12:45:24;17.30;99.90
7646;DHT22;3864;48.180;14.178;2022-10-16T12:47:53;17.30;99.90
7646;DHT22;3864;48.180;14.178;2022-10-16T12:50:27;17.30;99.90
7646;DHT22;3864;48.180;14.178;2022-10-16T12:52:56;17.40;99.90
7646;DHT22;3864;48.180;14.178;2022-10-16T12:55:26;17.40;99.90
7646;DHT22;3864;48.180;14.178;2022-10-16T12:58:12;17.40;99.90
7646;DHT22;3864;48.180;14.178;2022-10-16T13:00:44;17.40;99.90
7646;DHT22;3864;48.180;14.178;2022-10-16T13:03:44;17.50;99.90
7646;DHT22;3864;48.180;14.178;2022-10-16T13:06:22;17.40;99.90
7646;DHT22;3864;48.180;14.178;2022-10-16T13:09:15;17.30;99.90
7646;DHT22;3864;48.180;14.178;2022-10-16T13:11:57;17.30;99.90
7646;DHT22;3864;48.180;14.178;2022-10-16T13:14:50;17.30;99.90
7646;DHT22;3864;48.180;14.178;2022-10-16T13:17:25;17.40;99.90
7646;DHT22;3864;48.180;14.178;2022-10-16T13:20:02;17.40;99.90
7646;DHT22;3864;48.180;14.178;2022-10-16T13:22:38;17.40;99.90
7646;DHT22;3864;48.180;14.178;2022-10-16T13:25:20;17.50;99.90
7646;DHT22;3864;48.180;14.178;2022-10-16T13:27:55;17.50;99.90
7646;DHT22;3864;48.180;14.178;2022-10-16T13:30:24;17.50;99.90
7646;DHT22;3864;48.180;14.178;2022-10-16T13:32:59;17.50;99.90
7646;DHT22;3864;48.180;14.178;2022-10-16T13:35:29;17.50;99.90
7646;DHT22;3864;48.180;14.178;2022-10-16T13:38:12;17.40;99.90
7646;DHT22;3864;48.180;14.178;2022-10-16T13:40:54;17.40;99.90
7646;DHT22;3864;48.180;14.178;2022-10-16T13:43:26;17.40;99.90
7646;DHT22;3864;48.180;14.178;2022-10-16T13:45:59;17.30;99.90
7646;DHT22;3864;48.180;14.178;2022-10-16T13:48:27;17.30;99.90
7646;DHT22;3864;48.180;14.178;2022-10-16T13:51:03;17.30;99.90
7646;DHT22;3864;48.180;14.178;2022-10-16T13:53:32;17.30;99.90
7646;DHT22;3864;48.180;14.178;2022-10-16T13:56:00;17.50;99.90
7646;DHT22;3864;48.180;14.178;2022-10-16T13:58:30;17.60;99.90
7646;DHT22;3864;48.180;14.178;2022-10-16T14:00:59;17.80;99.90
7646;DHT22;3864;48.180;14.178;2022-10-16T14:03:28;17.90;99.90
7646;DHT22;3864;48.180;14.178;2022-10-16T14:05:59;17.90;99.90
7646;DHT22;3864;48.180;14.178;2022-10-16T14:08:28;17.80;99.90
7646;DHT22;3864;48.180;14.178;2022-10-16T14:10:58;17.70;99.90
7646;DHT22;3864;48.180;14.178;2022-10-16T14:13:31;17.60;99.90
7646;DHT22;3864;48.180;14.178;2022-10-16T14:16:02;17.50;99.90
7646;DHT22;3864;48.180;14.178;2022-10-16T14:18:33;17.50;99.90
7646;DHT22;3864;48.180;14.178;2022-10-16T14:21:05;17.50;99.90
7646;DHT22;3864;48.180;14.178;2022-10-16T14:23:35;17.50;99.90
7646;DHT22;3864;48.180;14.178;2022-10-16T14:26:16;17.40;99.90
7646;DHT22;3864;48.180;14.178;2022-10-16T14:28:47;17.50;99.90
7646;DHT22;3864;48.180;14.178;2022-10-16T14:31:26;17.40;99.90
7646;DHT22;3864;48.180;14.178;2022-10-16T14:33:56;17.40;99.90
7646;DHT22;3864;48.180;14.178;2022-10-16T14:36:25;17.30;99.90
7646;DHT22;3864;48.180;14.178;2022-10-16T14:38:59;17.30;99.90
7646;DHT22;3864;48.180;14.178;2022-10-16T14:41:28;17.30;99.90
7646;DHT22;3864;48.180;14.178;2022-10-16T14:44:02;17.30;99.90
7646;DHT22;3864;48.180;14.178;2022-10-16T14:46:34;17.30;99.90
7646;DHT22;3864;48.180;14.178;2022-10-16T14:49:05;17.20;99.90
7646;DHT22;3864;48.180;14.178;2022-10-16T14:51:42;17.20;99.90
7646;DHT22;3864;48.180;14.178;2022-10-16T14:54:10;17.30;99.90
7646;DHT22;3864;48.180;14.178;2022-10-16T14:56:45;17.30;99.90
7646;DHT22;3864;48.180;14.178;2022-10-16T14:59:17;17.30;99.90
7646;DHT22;3864;48.180;14.178;2022-10-16T15:01:45;17.30;99.90
7646;DHT22;3864;48.180;14.178;2022-10-16T15:04:13;17.30;99.90
7646;DHT22;3864;48.180;14.178;2022-10-16T15:06:41;17.20;99.90
7646;DHT22;3864;48.180;14.178;2022-10-16T15:09:08;17.20;99.90
7646;DHT22;3864;48.180;14.178;2022-10-16T15:11:36;17.20;99.90
7646;DHT22;3864;48.180;14.178;2022-10-16T15:14:04;17.20;99.90
7646;DHT22;3864;48.180;14.178;2022-10-16T15:16:33;17.20;99.90
7646;DHT22;3864;48.180;14.178;2022-10-16T15:19:01;17.20;99.90
7646;DHT22;3864;48.180;14.178;2022-10-16T15:21:29;17.20;99.90
7646;DHT22;3864;48.180;14.178;2022-10-16T15:23:58;17.20;99.90
7646;DHT22;3864;48.180;14.178;2022-10-16T15:26:26;17.20;99.90
7646;DHT22;3864;48.180;14.178;2022-10-16T15:28:54;17.20;99.90
7646;DHT22;3864;48.180;14.178;2022-10-16T15:31:21;17.20;99.90
7646;DHT22;3864;48.180;14.178;2022-10-16T15:33:52;17.10;99.90
7646;DHT22;3864;48.180;14.178;2022-10-16T15:36:27;17.00;99.90
7646;DHT22;3864;48.180;14.178;2022-10-16T15:38:55;16.90;99.90
7646;DHT22;3864;48.180;14.178;2022-10-16T15:41:22;16.90;99.90
7646;DHT22;3864;48.180;14.178;2022-10-16T15:43:50;16.80;99.90
7646;DHT22;3864;48.180;14.178;2022-10-16T15:46:19;16.70;99.90
7646;DHT22;3864;48.180;14.178;2022-10-16T15:48:47;16.60;99.90
7646;DHT22;3864;48.180;14.178;2022-10-16T15:51:17;16.50;99.90
7646;DHT22;3864;48.180;14.178;2022-10-16T15:53:45;16.40;99.90
7646;DHT22;3864;48.180;14.178;2022-10-16T15:56:14;16.40;99.90
7646;DHT22;3864;48.180;14.178;2022-10-16T15:58:42;16.40;99.90
7646;DHT22;3864;48.180;14.178;2022-10-16T16:01:09;16.20;99.90
7646;DHT22;3864;48.180;14.178;2022-10-16T16:03:38;16.10;99.90
7646;DHT22;3864;48.180;14.178;2022-10-16T16:06:07;16.10;99.90
7646;DHT22;3864;48.180;14.178;2022-10-16T16:08:37;16.00;99.90
7646;DHT22;3864;48.180;14.178;2022-10-16T16:11:05;15.80;99.90
7646;DHT22;3864;48.180;14.178;2022-10-16T16:13:33;15.70;99.90
7646;DHT22;3864;48.180;14.178;2022-10-16T16:16:05;15.60;99.90
7646;DHT22;3864;48.180;14.178;2022-10-16T16:18:33;15.50;99.90
7646;DHT22;3864;48.180;14.178;2022-10-16T16:21:00;15.40;99.90